createdAt,value
2022-10-29T00:01:34.387Z,16.65
2022-10-29T00:04:17.785Z,16.57
2022-10-29T00:07:01.197Z,16.29
2022-10-29T00:09:44.553Z,16.22
2022-10-29T00:12:28.053Z,16.08
2022-10-29T00:15:11.819Z,16.25
2022-10-29T00:17:55.732Z,16.40
2022-10-29T00:20:39.348Z,16.30
2022-10-29T00:23:22.825Z,16.53
2022-10-29T00:26:06.947Z,16.44
2022-10-29T00:28:56.131Z,16.15
2022-10-29T00:31:39.540Z,16.14
2022-10-29T00:34:22.970Z,16.20
2022-10-29T00:37:06.955Z,16.22
2022-10-29T00:39:50.317Z,15.74
2022-10-29T00:42:33.714Z,15.72
2022-10-29T00:45:21.011Z,15.76
2022-10-29T00:48:04.526Z,15.97
2022-10-29T00:50:49.412Z,15.84
2022-10-29T00:53:42.876Z,15.94
2022-10-29T00:56:32.905Z,15.67
2022-10-29T00:59:20.792Z,15.81
2022-10-29T01:02:04.551Z,15.69
2022-10-29T01:04:49.585Z,15.72
2022-10-29T01:07:33.553Z,15.70
2022-10-29T01:10:25.025Z,15.74
2022-10-29T01:13:41.455Z,15.74
2022-10-29T01:16:49.745Z,15.89
2022-10-29T01:20:10.570Z,15.77
2022-10-29T01:23:12.395Z,16.08
2022-10-29T01:25:58.608Z,15.82
2022-10-29T01:29:05.370Z,15.72
2022-10-29T01:32:07.363Z,15.76
2022-10-29T01:35:07.810Z,15.64
2022-10-29T01:38:18.910Z,15.82
2022-10-29T01:41:35.686Z,15.70
2022-10-29T01:44:48.154Z,15.72
2022-10-29T01:47:44.170Z,15.68
2022-10-29T01:50:28.181Z,15.63
2022-10-29T01:53:13.018Z,15.89
2022-10-29T01:55:56.558Z,15.89
2022-10-29T01:58:47.881Z,16.16
2022-10-29T02:02:15.779Z,16.06
2022-10-29T02:05:28.033Z,15.90
2022-10-29T02:08:26.387Z,16.11
2022-10-29T02:11:24.055Z,15.64
2022-10-29T02:14:36.776Z,15.57
2022-10-29T02:17:20.419Z,15.42
2022-10-29T02:20:10.518Z,15.34
2022-10-29T02:22:53.909Z,15.37
2022-10-29T02:25:38.089Z,15.46
2022-10-29T02:28:21.653Z,15.45
2022-10-29T02:31:06.069Z,15.20
2022-10-29T02:33:49.419Z,15.49
2022-10-29T02:36:32.936Z,15.48
2022-10-29T02:39:16.366Z,15.50
2022-10-29T02:41:59.723Z,15.43
2022-10-29T02:44:43.108Z,15.28
2022-10-29T02:47:26.571Z,15.32
2022-10-29T02:50:09.927Z,15.35
2022-10-29T02:52:53.348Z,15.49
2022-10-29T02:55:36.765Z,15.59
2022-10-29T03:01:24.314Z,15.36
2022-10-29T03:04:07.857Z,15.39
2022-10-29T03:06:51.275Z,15.50
2022-10-29T03:09:34.664Z,15.54
2022-10-29T03:12:18.150Z,15.56
2022-10-29T03:15:01.765Z,15.76
2022-10-29T03:17:45.161Z,15.56
2022-10-29T03:20:28.712Z,15.57
2022-10-29T03:23:12.131Z,15.60
2022-10-29T03:25:56.802Z,15.77
2022-10-29T03:28:40.262Z,15.80
2022-10-29T03:31:23.639Z,15.89
2022-10-29T03:34:07.024Z,15.68
2022-10-29T03:36:50.589Z,15.55
2022-10-29T03:39:33.986Z,15.40
2022-10-29T03:42:17.403Z,15.70
2022-10-29T03:45:02.330Z,15.62
2022-10-29T03:47:46.846Z,15.63
2022-10-29T03:50:30.523Z,15.74
2022-10-29T03:53:14.493Z,15.26
2022-10-29T03:55:58.418Z,15.40
2022-10-29T03:58:41.822Z,15.27
2022-10-29T04:01:25.359Z,15.21
2022-10-29T04:04:10.336Z,15.57
2022-10-29T04:06:53.696Z,15.38
2022-10-29T04:09:37.089Z,15.16
2022-10-29T04:12:20.512Z,15.13
2022-10-29T04:15:04.132Z,15.35
2022-10-29T04:17:51.322Z,15.21
2022-10-29T04:21:05.800Z,15.41
2022-10-29T04:29:47.090Z,15.21
2022-10-29T04:32:30.491Z,15.24
2022-10-29T04:35:13.871Z,15.43
2022-10-29T04:37:57.312Z,15.68
2022-10-29T04:40:40.717Z,15.52
2022-10-29T04:43:24.112Z,15.58
2022-10-29T04:46:07.469Z,15.74
2022-10-29T04:48:50.884Z,15.71
2022-10-29T04:51:34.422Z,15.77
2022-10-29T04:54:17.811Z,15.58
2022-10-29T04:57:04.267Z,15.37
2022-10-29T04:59:47.656Z,15.57
2022-10-29T05:02:31.111Z,15.61
2022-10-29T05:05:14.581Z,15.47
2022-10-29T05:08:00.645Z,15.38
2022-10-29T05:10:46.267Z,15.04
2022-10-29T05:13:31.000Z,15.00
2022-10-29T05:16:14.360Z,15.33
2022-10-29T05:18:57.721Z,15.32
2022-10-29T05:21:41.135Z,15.57
2022-10-29T05:24:24.665Z,15.28
2022-10-29T05:27:08.291Z,15.54
2022-10-29T05:29:51.653Z,15.46
2022-10-29T05:35:38.857Z,15.65
2022-10-29T05:38:22.409Z,15.37
2022-10-29T05:41:05.874Z,15.40
2022-10-29T05:43:50.252Z,15.26
2022-10-29T05:46:33.606Z,15.37
2022-10-29T05:49:17.114Z,15.26
2022-10-29T05:52:00.490Z,15.41
2022-10-29T05:54:43.875Z,15.39
2022-10-29T05:57:28.756Z,15.30
2022-10-29T06:00:12.578Z,15.32
2022-10-29T06:02:57.057Z,15.12
2022-10-29T06:05:40.982Z,14.89
2022-10-29T06:08:24.604Z,14.74
2022-10-29T06:11:08.000Z,14.64
2022-10-29T06:13:55.714Z,14.64
2022-10-29T06:16:39.080Z,14.94
2022-10-29T06:19:22.600Z,14.84
2022-10-29T06:22:06.082Z,14.78
2022-10-29T06:24:49.555Z,14.59
2022-10-29T06:27:32.989Z,14.93
2022-10-29T06:30:16.493Z,14.91
2022-10-29T06:33:00.537Z,15.03
2022-10-29T06:35:44.564Z,15.22
2022-10-29T06:38:27.982Z,14.94
2022-10-29T06:41:11.532Z,15.16
2022-10-29T06:43:55.017Z,15.21
2022-10-29T06:46:39.071Z,15.18
2022-10-29T06:49:22.562Z,15.14
2022-10-29T06:52:06.012Z,15.08
2022-10-29T06:54:49.359Z,15.14
2022-10-29T06:57:32.800Z,15.35
2022-10-29T07:00:16.326Z,15.13
2022-10-29T07:03:00.595Z,15.52
2022-10-29T07:05:45.155Z,15.43
2022-10-29T07:08:29.072Z,15.49
2022-10-29T07:11:12.478Z,15.30
2022-10-29T07:13:56.516Z,15.24
2022-10-29T07:16:39.878Z,15.22
2022-10-29T07:19:23.310Z,15.23
2022-10-29T07:22:06.742Z,15.50
2022-10-29T07:24:50.416Z,15.58
2022-10-29T07:27:33.878Z,15.42
2022-10-29T07:30:17.800Z,15.47
2022-10-29T07:33:01.211Z,15.52
2022-10-29T07:35:54.464Z,15.63
2022-10-29T07:38:40.287Z,15.69
2022-10-29T07:41:23.685Z,15.51
2022-10-29T07:44:07.046Z,15.66
2022-10-29T07:46:50.519Z,15.41
2022-10-29T07:49:34.019Z,15.34
2022-10-29T07:52:17.551Z,15.47
2022-10-29T07:55:02.907Z,15.62
2022-10-29T07:57:46.441Z,15.71
2022-10-29T08:00:31.800Z,15.55
2022-10-29T08:03:15.682Z,15.68
2022-10-29T08:05:59.336Z,15.79
2022-10-29T08:08:42.913Z,15.85
2022-10-29T08:11:26.467Z,15.92
2022-10-29T08:14:10.065Z,16.02
2022-10-29T08:16:54.978Z,16.16
2022-10-29T08:19:38.576Z,16.28
2022-10-29T08:22:22.270Z,16.14
2022-10-29T08:25:06.087Z,16.20
2022-10-29T08:28:04.704Z,16.50
2022-10-29T08:30:50.760Z,16.51
2022-10-29T08:33:34.456Z,16.52
2022-10-29T08:36:18.117Z,16.41
2022-10-29T08:39:01.671Z,16.64
2022-10-29T08:42:41.322Z,16.68
2022-10-29T08:45:48.040Z,16.85
2022-10-29T08:48:47.262Z,17.13
2022-10-29T08:51:49.264Z,17.28
2022-10-29T08:54:40.054Z,17.30
2022-10-29T08:57:26.364Z,17.21
2022-10-29T09:00:38.743Z,17.43
2022-10-29T09:03:22.816Z,17.15
2022-10-29T09:06:51.705Z,17.14
2022-10-29T09:09:39.313Z,17.41
2022-10-29T09:12:50.021Z,17.69
2022-10-29T09:16:01.544Z,17.49
2022-10-29T09:19:38.333Z,17.53
2022-10-29T09:22:40.387Z,17.73
2022-10-29T09:25:33.394Z,17.95
2022-10-29T09:28:24.585Z,18.27
2022-10-29T09:31:17.212Z,18.00
2022-10-29T09:34:18.069Z,18.64
2022-10-29T09:37:04.929Z,18.40
2022-10-29T09:39:48.821Z,18.18
2022-10-29T09:42:41.836Z,18.51
2022-10-29T09:45:46.089Z,18.82
2022-10-29T09:48:39.633Z,18.85
2022-10-29T09:51:49.774Z,19.19
2022-10-29T09:54:34.232Z,18.52
2022-10-29T09:57:29.605Z,18.64
2022-10-29T10:00:29.524Z,18.94
2022-10-29T10:03:45.758Z,18.56
2022-10-29T10:06:29.357Z,18.52
2022-10-29T10:09:12.857Z,18.62
2022-10-29T10:11:59.375Z,18.98
2022-10-29T10:14:42.881Z,18.79
2022-10-29T10:17:26.432Z,18.68
2022-10-29T10:20:40.906Z,18.68
2022-10-29T10:23:40.780Z,18.61
2022-10-29T10:26:39.471Z,18.82
2022-10-29T10:29:23.840Z,18.44
2022-10-29T10:32:08.998Z,19.21
2022-10-29T10:34:52.590Z,19.48
2022-10-29T10:37:36.262Z,19.50
2022-10-29T10:40:25.198Z,19.40
2022-10-29T10:43:23.529Z,19.98
2022-10-29T10:46:25.301Z,19.67
2022-10-29T10:49:12.001Z,19.81
2022-10-29T10:51:58.431Z,20.00
2022-10-29T10:54:59.884Z,20.46
2022-10-29T10:58:09.792Z,20.37
2022-10-29T11:01:13.531Z,20.39
2022-10-29T11:04:12.899Z,20.34
2022-10-29T11:07:06.335Z,20.10
2022-10-29T11:09:53.133Z,20.22
2022-10-29T11:12:49.468Z,20.65
2022-10-29T11:15:47.678Z,20.50
2022-10-29T11:18:43.980Z,19.90
2022-10-29T11:21:36.162Z,20.37
2022-10-29T11:24:49.809Z,19.96
2022-10-29T11:28:15.962Z,20.58
2022-10-29T11:31:17.825Z,19.95
2022-10-29T11:34:20.951Z,20.18
2022-10-29T11:37:18.134Z,19.81
2022-10-29T11:40:27.514Z,19.64
2022-10-29T11:43:19.828Z,20.40
2022-10-29T11:46:27.102Z,20.28
2022-10-29T11:49:30.605Z,20.92
2022-10-29T11:52:54.143Z,20.04
2022-10-29T11:56:07.201Z,20.66
2022-10-29T11:59:38.432Z,20.40
2022-10-29T12:03:22.245Z,20.92
2022-10-29T12:06:23.669Z,21.03
2022-10-29T12:09:34.077Z,21.37
2022-10-29T12:12:47.177Z,21.12
2022-10-29T12:15:45.169Z,21.20
2022-10-29T12:19:06.951Z,21.30
2022-10-29T12:22:26.574Z,21.01
2022-10-29T12:25:40.699Z,20.78
2022-10-29T12:28:40.251Z,21.30
2022-10-29T12:31:57.208Z,21.58
2022-10-29T12:35:12.501Z,21.52
2022-10-29T12:38:20.097Z,21.51
2022-10-29T12:41:30.003Z,21.52
2022-10-29T12:44:45.160Z,21.71
2022-10-29T12:47:38.094Z,21.74
2022-10-29T12:51:04.084Z,22.03
2022-10-29T12:54:24.083Z,21.93
2022-10-29T12:57:13.638Z,21.89
2022-10-29T12:59:58.710Z,21.75
2022-10-29T13:02:46.124Z,21.81
2022-10-29T13:05:42.800Z,22.01
2022-10-29T13:08:34.541Z,22.16
2022-10-29T13:11:25.137Z,21.92
2022-10-29T13:14:11.270Z,21.42
2022-10-29T13:16:58.059Z,21.69
2022-10-29T13:19:54.369Z,21.63
2022-10-29T13:25:57.855Z,21.92
2022-10-29T13:28:45.325Z,21.61
2022-10-29T13:31:28.629Z,21.49
2022-10-29T13:34:55.502Z,21.66
2022-10-29T13:38:09.711Z,21.13
2022-10-29T13:41:27.900Z,21.22
2022-10-29T13:44:23.048Z,21.32
2022-10-29T13:47:21.622Z,21.39
2022-10-29T13:50:07.482Z,21.26
2022-10-29T13:52:57.132Z,21.22
2022-10-29T13:55:44.913Z,21.35
2022-10-29T13:58:37.283Z,21.18
2022-10-29T14:01:24.684Z,21.20
2022-10-29T14:04:30.834Z,21.55
2022-10-29T14:07:23.750Z,21.67
2022-10-29T14:10:23.685Z,21.64
2022-10-29T14:13:31.405Z,21.14
2022-10-29T14:16:16.618Z,21.16
2022-10-29T14:19:15.363Z,21.07
2022-10-29T14:21:58.730Z,21.34
2022-10-29T14:24:42.179Z,21.08
2022-10-29T14:27:25.608Z,21.10
2022-10-29T14:30:20.267Z,21.30
2022-10-29T14:33:23.670Z,21.37
2022-10-29T14:36:43.348Z,21.16
2022-10-29T14:39:48.358Z,21.10
2022-10-29T14:42:48.937Z,21.43
2022-10-29T14:45:32.811Z,21.41
2022-10-29T14:48:18.904Z,21.34
2022-10-29T14:51:02.292Z,21.05
2022-10-29T14:53:52.211Z,21.28
2022-10-29T14:56:40.487Z,21.16
2022-10-29T14:59:29.401Z,21.12
2022-10-29T15:05:26.816Z,21.33
2022-10-29T15:08:10.074Z,21.21
2022-10-29T15:10:56.459Z,21.32
2022-10-29T15:13:39.881Z,21.23
2022-10-29T15:16:23.555Z,21.39
2022-10-29T15:19:15.384Z,21.41
2022-10-29T15:21:58.782Z,21.43
2022-10-29T15:24:49.236Z,21.09
2022-10-29T15:27:36.456Z,21.18
2022-10-29T15:30:27.541Z,21.17
2022-10-29T15:33:27.792Z,21.23
2022-10-29T15:36:11.198Z,21.06
2022-10-29T15:39:48.832Z,20.98
2022-10-29T15:42:35.990Z,21.01
2022-10-29T15:45:28.797Z,20.85
2022-10-29T15:48:12.322Z,20.81
2022-10-29T15:50:57.628Z,20.70
2022-10-29T15:53:41.241Z,20.27
2022-10-29T15:56:25.801Z,20.50
2022-10-29T15:59:22.994Z,20.43
2022-10-29T16:02:17.685Z,20.19
2022-10-29T16:05:01.319Z,20.22
2022-10-29T16:07:47.399Z,20.35
2022-10-29T16:10:31.499Z,20.20
2022-10-29T16:13:18.073Z,20.15
2022-10-29T16:16:01.734Z,20.20
2022-10-29T16:18:49.067Z,20.20
2022-10-29T16:21:32.689Z,20.12
2022-10-29T16:24:16.133Z,20.10
2022-10-29T16:26:59.528Z,20.11
2022-10-29T16:29:43.518Z,20.03
2022-10-29T16:32:26.937Z,19.98
2022-10-29T16:35:26.186Z,20.02
2022-10-29T16:38:10.257Z,20.02
2022-10-29T16:40:53.762Z,19.98
2022-10-29T16:43:37.129Z,19.83
2022-10-29T16:46:20.612Z,19.77
2022-10-29T16:49:04.005Z,19.71
2022-10-29T16:51:47.801Z,19.69
2022-10-29T16:54:31.212Z,19.15
2022-10-29T16:57:14.598Z,19.24
2022-10-29T16:59:58.088Z,19.55
2022-10-29T17:02:44.595Z,19.54
2022-10-29T17:05:28.041Z,19.51
2022-10-29T17:08:12.456Z,19.29
2022-10-29T17:10:59.563Z,19.54
2022-10-29T17:13:43.044Z,19.10
2022-10-29T17:16:26.502Z,19.16
2022-10-29T17:19:09.896Z,19.28
2022-10-29T17:21:53.459Z,19.11
2022-10-29T17:24:36.930Z,19.20
2022-10-29T17:27:20.327Z,19.13
2022-10-29T17:30:04.059Z,19.26
2022-10-29T17:32:47.562Z,19.26
2022-10-29T17:35:30.935Z,19.24
2022-10-29T17:38:14.328Z,19.27
2022-10-29T17:40:57.760Z,19.24
2022-10-29T17:43:41.238Z,19.23
2022-10-29T17:46:24.811Z,19.14
2022-10-29T17:49:08.634Z,19.15
2022-10-29T17:51:52.832Z,18.98
2022-10-29T17:54:36.297Z,18.90
2022-10-29T17:57:19.746Z,19.05
2022-10-29T18:00:04.346Z,18.96
2022-10-29T18:02:51.561Z,18.94
2022-10-29T18:05:35.026Z,18.99
2022-10-29T18:08:18.443Z,18.82
2022-10-29T18:11:16.973Z,18.66
2022-10-29T18:14:00.409Z,18.63
2022-10-29T18:16:43.872Z,18.21
2022-10-29T18:19:27.301Z,18.23
2022-10-29T18:22:10.681Z,18.41
2022-10-29T18:24:54.113Z,18.30
2022-10-29T18:27:39.616Z,18.17
2022-10-29T18:30:23.780Z,17.98
2022-10-29T18:33:07.233Z,17.83
2022-10-29T18:35:54.118Z,18.16
2022-10-29T18:38:38.471Z,18.05
2022-10-29T18:41:23.214Z,18.12
2022-10-29T18:44:07.311Z,18.19
2022-10-29T18:46:50.726Z,18.12
2022-10-29T18:49:34.153Z,18.10
2022-10-29T18:52:17.547Z,17.96
2022-10-29T18:55:01.103Z,17.59
2022-10-29T18:57:44.586Z,17.80
2022-10-29T19:00:28.031Z,17.97
2022-10-29T19:03:11.620Z,17.85
2022-10-29T19:05:54.975Z,17.59
2022-10-29T19:08:43.152Z,17.58
2022-10-29T19:11:27.046Z,17.89
2022-10-29T19:14:14.222Z,17.92
2022-10-29T19:16:57.616Z,17.88
2022-10-29T19:19:41.021Z,17.66
2022-10-29T19:22:24.380Z,17.66
2022-10-29T19:25:08.200Z,17.26
2022-10-29T19:27:52.046Z,17.65
2022-10-29T19:30:35.412Z,17.88
2022-10-29T19:33:18.823Z,17.76
2022-10-29T19:36:04.431Z,17.51
2022-10-29T19:38:48.067Z,17.50
2022-10-29T19:41:32.042Z,17.29
2022-10-29T19:44:15.438Z,17.53
2022-10-29T19:46:58.807Z,17.57
2022-10-29T19:49:42.175Z,17.49
2022-10-29T19:52:25.687Z,17.29
2022-10-29T19:55:09.623Z,17.24
2022-10-29T19:57:53.084Z,17.20
2022-10-29T20:00:37.610Z,17.17
2022-10-29T20:03:21.771Z,17.13
2022-10-29T20:06:06.682Z,17.09
2022-10-29T20:08:50.539Z,17.21
2022-10-29T20:11:33.943Z,16.94
2022-10-29T20:14:17.343Z,17.05
2022-10-29T20:17:00.909Z,16.97
2022-10-29T20:19:44.377Z,16.14
2022-10-29T20:22:27.786Z,15.83
2022-10-29T20:25:11.194Z,16.53
2022-10-29T20:27:54.672Z,16.85
2022-10-29T20:30:38.220Z,16.88
2022-10-29T20:33:21.661Z,17.01
2022-10-29T20:36:05.502Z,16.94
2022-10-29T20:38:53.420Z,16.87
2022-10-29T20:41:37.505Z,17.01
2022-10-29T20:44:20.914Z,17.04
2022-10-29T20:47:04.403Z,17.03
2022-10-29T20:49:47.843Z,16.87
2022-10-29T20:52:31.253Z,16.90
2022-10-29T20:55:14.732Z,16.90
2022-10-29T20:57:58.522Z,16.92
2022-10-29T21:00:42.388Z,16.87
2022-10-29T21:03:25.787Z,16.89
2022-10-29T21:06:16.995Z,16.85
2022-10-29T21:09:00.962Z,16.86
2022-10-29T21:11:44.391Z,17.03
2022-10-29T21:14:29.675Z,16.97
2022-10-29T21:17:13.101Z,16.94
2022-10-29T21:19:56.567Z,16.86
2022-10-29T21:22:40.316Z,16.86
2022-10-29T21:25:23.772Z,16.92
2022-10-29T21:28:07.194Z,16.86
2022-10-29T21:30:50.610Z,16.83
2022-10-29T21:33:34.055Z,16.80
2022-10-29T21:36:18.619Z,16.87
2022-10-29T21:39:02.029Z,16.75
2022-10-29T21:41:45.473Z,16.78
2022-10-29T21:44:28.870Z,16.72
2022-10-29T21:47:12.282Z,16.70
2022-10-29T21:49:55.750Z,16.70
2022-10-29T21:52:40.314Z,16.70
2022-10-29T21:55:23.689Z,16.72
2022-10-29T21:58:08.037Z,16.62
2022-10-29T22:00:52.119Z,16.61
2022-10-29T22:03:38.701Z,16.58
2022-10-29T22:06:25.752Z,16.57
2022-10-29T22:09:11.875Z,16.13
2022-10-29T22:11:55.946Z,16.35
2022-10-29T22:14:39.391Z,16.49
2022-10-29T22:17:22.920Z,16.61
2022-10-29T22:20:06.841Z,16.52
2022-10-29T22:22:50.423Z,16.46
2022-10-29T22:25:33.828Z,16.51
2022-10-29T22:28:17.235Z,16.58
2022-10-29T22:31:03.420Z,16.41
2022-10-29T22:33:49.252Z,16.48
2022-10-29T22:36:32.752Z,16.33
2022-10-29T22:39:16.153Z,16.30
2022-10-29T22:41:59.597Z,16.48
2022-10-29T22:44:43.070Z,16.54
2022-10-29T22:47:26.555Z,15.52
2022-10-29T22:50:10.256Z,15.03
2022-10-29T22:52:53.704Z,14.83
2022-10-29T22:55:37.122Z,15.55
2022-10-29T22:58:21.062Z,15.91
2022-10-29T23:01:14.540Z,16.06
2022-10-29T23:04:00.048Z,16.17
2022-10-29T23:06:43.479Z,16.18
2022-10-29T23:09:27.060Z,16.31
2022-10-29T23:12:10.492Z,16.34
2022-10-29T23:14:53.929Z,16.37
2022-10-29T23:17:37.348Z,16.48
2022-10-29T23:20:20.773Z,16.41
2022-10-29T23:23:04.181Z,16.54
2022-10-29T23:25:47.603Z,16.47
2022-10-29T23:28:39.083Z,16.41
2022-10-29T23:31:26.277Z,16.38
2022-10-29T23:34:12.150Z,16.32
2022-10-29T23:36:55.643Z,16.39
2022-10-29T23:39:39.029Z,16.36
2022-10-29T23:42:22.590Z,16.34
2022-10-29T23:45:07.990Z,16.24
2022-10-29T23:47:51.518Z,16.10
2022-10-29T23:50:36.068Z,16.22
2022-10-29T23:53:20.116Z,16.15
2022-10-29T23:56:03.911Z,16.14
2022-10-29T23:58:47.354Z,16.04
